sensor_id;sensor_type;location;lat;lon;timestamp;pressure;altitude;pressure_sealevel;temperature;humidity
46464;BME280;32161;48.148;-1.554;2023-11-21T00:00:05;101015.94;;;12.23;100.00
46464;BME280;32161;48.148;-1.554;2023-11-21T00:02:37;101018.06;;;12.21;100.00
46464;BME280;32161;48.148;-1.554;2023-11-21T00:05:07;101024.34;;;12.21;100.00
46464;BME280;32161;48.148;-1.554;2023-11-21T00:07:35;101026.38;;;12.26;100.00
46464;BME280;32161;48.148;-1.554;2023-11-21T00:10:04;101018.31;;;12.31;100.00
46464;BME280;32161;48.148;-1.554;2023-11-21T00:12:34;101020.81;;;12.33;100.00
46464;BME280;32161;48.148;-1.554;2023-11-21T00:15:04;101018.78;;;12.28;100.00
46464;BME280;32161;48.148;-1.554;2023-11-21T00:17:35;101019.63;;;12.29;100.00
46464;BME280;32161;48.148;-1.554;2023-11-21T00:20:03;101016.66;;;12.30;100.00
46464;BME280;32161;48.148;-1.554;2023-11-21T00:22:32;101018.31;;;12.31;100.00
46464;BME280;32161;48.148;-1.554;2023-11-21T00:25:00;101022.13;;;12.30;100.00
46464;BME280;32161;48.148;-1.554;2023-11-21T00:27:29;101017.97;;;12.28;100.00
46464;BME280;32161;48.148;-1.554;2023-11-21T00:29:57;101012.25;;;12.29;100.00
46464;BME280;32161;48.148;-1.554;2023-11-21T00:32:26;101017.13;;;12.27;100.00
46464;BME280;32161;48.148;-1.554;2023-11-21T00:34:53;101023.41;;;12.28;100.00
46464;BME280;32161;48.148;-1.554;2023-11-21T00:37:21;101024.34;;;12.33;100.00
46464;BME280;32161;48.148;-1.554;2023-11-21T00:39:50;101019.63;;;12.29;100.00
46464;BME280;32161;48.148;-1.554;2023-11-21T00:42:17;101011.69;;;12.27;100.00
46464;BME280;32161;48.148;-1.554;2023-11-21T00:44:45;101024.69;;;12.25;100.00
46464;BME280;32161;48.148;-1.554;2023-11-21T00:47:12;101029.31;;;12.25;100.00
46464;BME280;32161;48.148;-1.554;2023-11-21T00:49:42;101038.56;;;12.12;100.00
46464;BME280;32161;48.148;-1.554;2023-11-21T00:52:10;101035.25;;;12.21;100.00
46464;BME280;32161;48.148;-1.554;2023-11-21T00:54:38;101028.97;;;12.21;100.00
46464;BME280;32161;48.148;-1.554;2023-11-21T00:57:06;101035.13;;;12.16;100.00
46464;BME280;32161;48.148;-1.554;2023-11-21T00:59:34;101039.97;;;12.14;100.00
46464;BME280;32161;48.148;-1.554;2023-11-21T01:02:02;101034.28;;;12.16;100.00
46464;BME280;32161;48.148;-1.554;2023-11-21T01:04:31;101047.09;;;12.15;100.00
46464;BME280;32161;48.148;-1.554;2023-11-21T01:07:00;101039.00;;;12.09;100.00
46464;BME280;32161;48.148;-1.554;2023-11-21T01:09:27;101039.63;;;12.11;100.00
46464;BME280;32161;48.148;-1.554;2023-11-21T01:11:56;101042.34;;;12.11;100.00
46464;BME280;32161;48.148;-1.554;2023-11-21T01:14:24;101047.81;;;12.11;100.00
46464;BME280;32161;48.148;-1.554;2023-11-21T01:16:53;101050.16;;;12.07;100.00
46464;BME280;32161;48.148;-1.554;2023-11-21T01:19:20;101050.97;;;12.08;100.00
46464;BME280;32161;48.148;-1.554;2023-11-21T01:21:48;101049.22;;;12.13;100.00
46464;BME280;32161;48.148;-1.554;2023-11-21T01:24:17;101045.53;;;12.08;100.00
46464;BME280;32161;48.148;-1.554;2023-11-21T01:26:44;101053.84;;;12.13;100.00
46464;BME280;32161;48.148;-1.554;2023-11-21T01:29:13;101054.44;;;12.15;100.00
46464;BME280;32161;48.148;-1.554;2023-11-21T01:31:41;101053.13;;;12.17;100.00
46464;BME280;32161;48.148;-1.554;2023-11-21T01:34:09;101053.84;;;12.13;100.00
46464;BME280;32161;48.148;-1.554;2023-11-21T01:36:36;101049.44;;;12.12;100.00
46464;BME280;32161;48.148;-1.554;2023-11-21T01:39:04;101052.19;;;12.12;100.00
46464;BME280;32161;48.148;-1.554;2023-11-21T01:41:35;101044.81;;;12.12;100.00
46464;BME280;32161;48.148;-1.554;2023-11-21T01:44:04;101053.13;;;12.17;100.00
46464;BME280;32161;48.148;-1.554;2023-11-21T01:46:33;101065.47;;;12.20;100.00
46464;BME280;32161;48.148;-1.554;2023-11-21T01:49:01;101059.56;;;12.23;100.00
46464;BME280;32161;48.148;-1.554;2023-11-21T01:51:29;101065.34;;;12.15;100.00
46464;BME280;32161;48.148;-1.554;2023-11-21T01:53:57;101070.97;;;12.02;100.00
46464;BME280;32161;48.148;-1.554;2023-11-21T01:56:25;101072.03;;;12.01;100.00
46464;BME280;32161;48.148;-1.554;2023-11-21T01:58:54;101075.47;;;11.96;100.00
46464;BME280;32161;48.148;-1.554;2023-11-21T02:01:23;101079.75;;;12.04;100.00
46464;BME280;32161;48.148;-1.554;2023-11-21T02:03:51;101075.50;;;12.08;100.00
46464;BME280;32161;48.148;-1.554;2023-11-21T02:06:19;101072.03;;;12.01;100.00
46464;BME280;32161;48.148;-1.554;2023-11-21T02:08:48;101073.19;;;11.93;100.00
46464;BME280;32161;48.148;-1.554;2023-11-21T02:11:16;101078.66;;;11.93;100.00
46464;BME280;32161;48.148;-1.554;2023-11-21T02:13:45;101084.31;;;11.91;100.00
46464;BME280;32161;48.148;-1.554;2023-11-21T02:16:14;101078.28;;;11.89;100.00
46464;BME280;32161;48.148;-1.554;2023-11-21T02:18:42;101082.19;;;11.93;100.00
46464;BME280;32161;48.148;-1.554;2023-11-21T02:21:10;101079.72;;;11.92;100.00
46464;BME280;32161;48.148;-1.554;2023-11-21T02:23:39;101076.53;;;11.77;100.00
46464;BME280;32161;48.148;-1.554;2023-11-21T02:26:10;101083.78;;;11.83;100.00
46464;BME280;32161;48.148;-1.554;2023-11-21T02:28:37;101079.63;;;11.80;100.00
46464;BME280;32161;48.148;-1.554;2023-11-21T02:31:05;101090.09;;;11.65;100.00
46464;BME280;32161;48.148;-1.554;2023-11-21T02:33:34;101086.00;;;11.74;100.00
46464;BME280;32161;48.148;-1.554;2023-11-21T02:36:02;101079.63;;;11.80;100.00
46464;BME280;32161;48.148;-1.554;2023-11-21T02:38:29;101081.25;;;11.69;100.00
46464;BME280;32161;48.148;-1.554;2023-11-21T02:40:59;101084.34;;;11.55;100.00
46464;BME280;32161;48.148;-1.554;2023-11-21T02:43:26;101083.72;;;11.71;100.00
46464;BME280;32161;48.148;-1.554;2023-11-21T02:45:54;101085.56;;;11.59;100.00
46464;BME280;32161;48.148;-1.554;2023-11-21T02:48:21;101095.09;;;11.49;100.00
46464;BME280;32161;48.148;-1.554;2023-11-21T02:50:50;101087.22;;;11.60;100.00
46464;BME280;32161;48.148;-1.554;2023-11-21T02:53:19;101089.41;;;11.51;100.00
46464;BME280;32161;48.148;-1.554;2023-11-21T02:55:47;101093.47;;;11.60;100.00
46464;BME280;32161;48.148;-1.554;2023-11-21T02:58:15;101097.50;;;11.58;100.00
46464;BME280;32161;48.148;-1.554;2023-11-21T03:00:43;101105.22;;;11.61;100.00
46464;BME280;32161;48.148;-1.554;2023-11-21T03:03:11;101104.63;;;11.59;100.00
46464;BME280;32161;48.148;-1.554;2023-11-21T03:05:39;101100.69;;;11.55;100.00
46464;BME280;32161;48.148;-1.554;2023-11-21T03:08:06;101096.06;;;11.55;100.00
46464;BME280;32161;48.148;-1.554;2023-11-21T03:10:34;101094.41;;;11.54;100.00
46464;BME280;32161;48.148;-1.554;2023-11-21T03:13:02;101101.00;;;11.46;100.00
46464;BME280;32161;48.148;-1.554;2023-11-21T03:15:31;101105.00;;;11.44;100.00
46464;BME280;32161;48.148;-1.554;2023-11-21T03:18:01;101102.41;;;11.49;100.00
46464;BME280;32161;48.148;-1.554;2023-11-21T03:20:31;101107.03;;;11.48;100.00
46464;BME280;32161;48.148;-1.554;2023-11-21T03:22:58;101110.59;;;11.49;100.00
46464;BME280;32161;48.148;-1.554;2023-11-21T03:25:27;101111.19;;;11.51;100.00
46464;BME280;32161;48.148;-1.554;2023-11-21T03:27:55;101115.81;;;11.51;100.00
46464;BME280;32161;48.148;-1.554;2023-11-21T03:30:23;101125.06;;;11.49;100.00
46464;BME280;32161;48.148;-1.554;2023-11-21T03:32:51;101117.25;;;11.53;100.00
46464;BME280;32161;48.148;-1.554;2023-11-21T03:35:19;101110.13;;;11.52;100.00
46464;BME280;32161;48.148;-1.554;2023-11-21T03:37:47;101110.38;;;11.51;100.00
46464;BME280;32161;48.148;-1.554;2023-11-21T03:40:15;101114.16;;;11.49;100.00
46464;BME280;32161;48.148;-1.554;2023-11-21T03:42:42;101115.19;;;11.48;100.00
46464;BME280;32161;48.148;-1.554;2023-11-21T03:45:10;101123.38;;;11.48;100.00
46464;BME280;32161;48.148;-1.554;2023-11-21T03:47:38;101126.56;;;11.45;100.00
46464;BME280;32161;48.148;-1.554;2023-11-21T03:50:08;101116.34;;;11.41;100.00
46464;BME280;32161;48.148;-1.554;2023-11-21T03:52:37;101122.69;;;11.35;100.00
46464;BME280;32161;48.148;-1.554;2023-11-21T03:55:05;101119.22;;;11.28;100.00
46464;BME280;32161;48.148;-1.554;2023-11-21T03:57:32;101130.53;;;11.24;100.00
46464;BME280;32161;48.148;-1.554;2023-11-21T04:00:00;101126.38;;;11.22;100.00
46464;BME280;32161;48.148;-1.554;2023-11-21T04:02:30;101147.94;;;11.23;100.00
46464;BME280;32161;48.148;-1.554;2023-11-21T04:04:59;101148.53;;;11.25;100.00
46464;BME280;32161;48.148;-1.554;2023-11-21T04:07:28;101148.09;;;11.29;100.00
46464;BME280;32161;48.148;-1.554;2023-11-21T04:09:55;101149.28;;;11.33;100.00
46464;BME280;32161;48.148;-1.554;2023-11-21T04:12:23;101149.09;;;11.34;100.00
46464;BME280;32161;48.148;-1.554;2023-11-21T04:14:50;101150.13;;;11.33;100.00
46464;BME280;32161;48.148;-1.554;2023-11-21T04:17:19;101151.81;;;11.34;100.00
46464;BME280;32161;48.148;-1.554;2023-11-21T04:19:46;101149.53;;;11.31;100.00
46464;BME280;32161;48.148;-1.554;2023-11-21T04:22:14;101151.19;;;11.32;100.00
46464;BME280;32161;48.148;-1.554;2023-11-21T04:24:43;101159.78;;;11.29;100.00
46464;BME280;32161;48.148;-1.554;2023-11-21T04:27:10;101157.06;;;11.29;100.00
46464;BME280;32161;48.148;-1.554;2023-11-21T04:29:39;101151.03;;;11.27;100.00
46464;BME280;32161;48.148;-1.554;2023-11-21T04:32:07;101148.31;;;11.27;100.00
46464;BME280;32161;48.148;-1.554;2023-11-21T04:34:35;101142.03;;;11.27;100.00
46464;BME280;32161;48.148;-1.554;2023-11-21T04:37:02;101149.34;;;11.26;100.00
46464;BME280;32161;48.148;-1.554;2023-11-21T04:39:32;101155.03;;;11.24;100.00
46464;BME280;32161;48.148;-1.554;2023-11-21T04:42:01;101155.03;;;11.24;100.00
46464;BME280;32161;48.148;-1.554;2023-11-21T04:44:28;101162.38;;;11.24;100.00
46464;BME280;32161;48.148;-1.554;2023-11-21T04:46:56;101164.25;;;11.23;100.00
46464;BME280;32161;48.148;-1.554;2023-11-21T04:49:24;101159.03;;;11.22;100.00
46464;BME280;32161;48.148;-1.554;2023-11-21T04:51:51;101162.81;;;11.21;100.00
46464;BME280;32161;48.148;-1.554;2023-11-21T04:54:19;101158.19;;;11.21;100.00
46464;BME280;32161;48.148;-1.554;2023-11-21T04:56:46;101170.78;;;11.22;100.00
46464;BME280;32161;48.148;-1.554;2023-11-21T04:59:15;101172.44;;;11.23;100.00
46464;BME280;32161;48.148;-1.554;2023-11-21T05:01:43;101170.28;;;11.25;100.00
46464;BME280;32161;48.148;-1.554;2023-11-21T05:04:10;101175.53;;;11.27;100.00
46464;BME280;32161;48.148;-1.554;2023-11-21T05:06:38;101182.63;;;11.28;100.00
46464;BME280;32161;48.148;-1.554;2023-11-21T05:09:05;101184.09;;;11.31;100.00
46464;BME280;32161;48.148;-1.554;2023-11-21T05:11:38;101193.06;;;11.31;100.00
46464;BME280;32161;48.148;-1.554;2023-11-21T05:14:07;101192.84;;;11.33;100.00
46464;BME280;32161;48.148;-1.554;2023-11-21T05:16:36;101190.13;;;11.33;100.00
46464;BME280;32161;48.148;-1.554;2023-11-21T05:19:04;101206.28;;;11.28;100.00
46464;BME280;32161;48.148;-1.554;2023-11-21T05:21:32;101210.91;;;11.27;100.00
46464;BME280;32161;48.148;-1.554;2023-11-21T05:24:00;101210.28;;;11.25;100.00
46464;BME280;32161;48.148;-1.554;2023-11-21T05:26:27;101211.13;;;11.25;100.00
46464;BME280;32161;48.148;-1.554;2023-11-21T05:28:55;101208.63;;;11.24;100.00
46464;BME280;32161;48.148;-1.554;2023-11-21T05:31:22;101213.84;;;11.25;100.00
46464;BME280;32161;48.148;-1.554;2023-11-21T05:33:51;101210.28;;;11.25;100.00
46464;BME280;32161;48.148;-1.554;2023-11-21T05:36:19;101212.84;;;11.20;100.00
46464;BME280;32161;48.148;-1.554;2023-11-21T05:38:46;101219.34;;;11.19;100.00
46464;BME280;32161;48.148;-1.554;2023-11-21T05:41:14;101224.56;;;11.20;100.00
46464;BME280;32161;48.148;-1.554;2023-11-21T05:43:43;101214.94;;;11.18;100.00
46464;BME280;32161;48.148;-1.554;2023-11-21T05:46:10;101228.78;;;11.16;100.00
46464;BME280;32161;48.148;-1.554;2023-11-21T05:48:39;101225.69;;;11.13;100.00
46464;BME280;32161;48.148;-1.554;2023-11-21T05:51:08;101227.19;;;11.09;100.00
46464;BME280;32161;48.148;-1.554;2023-11-21T05:53:38;101227.63;;;11.06;100.00
46464;BME280;32161;48.148;-1.554;2023-11-21T05:56:07;101225.97;;;11.05;100.00
46464;BME280;32161;48.148;-1.554;2023-11-21T05:58:34;101232.66;;;11.02;100.00
46464;BME280;32161;48.148;-1.554;2023-11-21T06:01:05;101232.91;;;11.00;100.00
46464;BME280;32161;48.148;-1.554;2023-11-21T06:03:33;101233.72;;;11.01;100.00
46464;BME280;32161;48.148;-1.554;2023-11-21T06:06:01;101226.00;;;10.98;100.00
46464;BME280;32161;48.148;-1.554;2023-11-21T06:08:30;101224.34;;;10.97;100.00
46464;BME280;32161;48.148;-1.554;2023-11-21T06:10:57;101233.56;;;10.96;100.00
46464;BME280;32161;48.148;-1.554;2023-11-21T06:13:25;101229.38;;;10.93;100.00
46464;BME280;32161;48.148;-1.554;2023-11-21T06:15:52;101225.00;;;10.92;100.00
46464;BME280;32161;48.148;-1.554;2023-11-21T06:18:20;101230.50;;;10.86;100.00
46464;BME280;32161;48.148;-1.554;2023-11-21T06:20:47;101225.72;;;10.81;100.00
46464;BME280;32161;48.148;-1.554;2023-11-21T06:23:16;101232.03;;;10.75;100.00
46464;BME280;32161;48.148;-1.554;2023-11-21T06:25:45;101242.72;;;10.70;100.00
46464;BME280;32161;48.148;-1.554;2023-11-21T06:28:12;101228.34;;;10.63;100.00
46464;BME280;32161;48.148;-1.554;2023-11-21T06:30:43;101240.53;;;10.54;100.00
46464;BME280;32161;48.148;-1.554;2023-11-21T06:33:11;101248.09;;;10.45;100.00
46464;BME280;32161;48.148;-1.554;2023-11-21T06:35:38;101244.78;;;10.43;100.00
46464;BME280;32161;48.148;-1.554;2023-11-21T06:38:06;101256.47;;;10.43;100.00
46464;BME280;32161;48.148;-1.554;2023-11-21T06:40:35;101266.28;;;10.44;100.00
46464;BME280;32161;48.148;-1.554;2023-11-21T06:43:04;101263.78;;;10.43;100.00
46464;BME280;32161;48.148;-1.554;2023-11-21T06:45:33;101262.53;;;10.45;100.00
46464;BME280;32161;48.148;-1.554;2023-11-21T06:48:01;101274.63;;;10.49;100.00
46464;BME280;32161;48.148;-1.554;2023-11-21T06:50:28;101276.06;;;10.52;100.00
46464;BME280;32161;48.148;-1.554;2023-11-21T06:52:56;101280.84;;;10.57;100.00
46464;BME280;32161;48.148;-1.554;2023-11-21T06:55:23;101281.25;;;10.60;100.00
46464;BME280;32161;48.148;-1.554;2023-11-21T06:57:51;101281.47;;;10.65;100.00
46464;BME280;32161;48.148;-1.554;2023-11-21T07:00:20;101293.34;;;10.71;100.00
46464;BME280;32161;48.148;-1.554;2023-11-21T07:02:48;101293.97;;;10.73;100.00
46464;BME280;32161;48.148;-1.554;2023-11-21T07:05:16;101297.50;;;10.73;100.00
46464;BME280;32161;48.148;-1.554;2023-11-21T07:07:47;101301.91;;;10.68;100.00
46464;BME280;32161;48.148;-1.554;2023-11-21T07:10:14;101310.72;;;10.70;100.00
46464;BME280;32161;48.148;-1.554;2023-11-21T07:12:43;101322.59;;;10.75;100.00
46464;BME280;32161;48.148;-1.554;2023-11-21T07:15:10;101315.25;;;10.76;100.00
46464;BME280;32161;48.148;-1.554;2023-11-21T07:17:39;101327.41;;;10.80;100.00
46464;BME280;32161;48.148;-1.554;2023-11-21T07:20:08;101324.03;;;10.85;100.00
46464;BME280;32161;48.148;-1.554;2023-11-21T07:22:37;101331.53;;;10.89;100.00
46464;BME280;32161;48.148;-1.554;2023-11-21T07:25:05;101332.34;;;10.90;100.00
46464;BME280;32161;48.148;-1.554;2023-11-21T07:27:33;101345.28;;;10.94;100.00
46464;BME280;32161;48.148;-1.554;2023-11-21T07:30:02;101341.97;;;10.92;100.00
46464;BME280;32161;48.148;-1.554;2023-11-21T07:32:30;101343.19;;;10.96;100.00
46464;BME280;32161;48.148;-1.554;2023-11-21T07:34:59;101349.22;;;10.98;100.00
46464;BME280;32161;48.148;-1.554;2023-11-21T07:37:27;101350.47;;;11.03;100.00
46464;BME280;32161;48.148;-1.554;2023-11-21T07:39:55;101345.50;;;10.99;100.00
46464;BME280;32161;48.148;-1.554;2023-11-21T07:42:23;101356.75;;;11.03;100.00
46464;BME280;32161;48.148;-1.554;2023-11-21T07:44:52;101353.19;;;11.03;100.00
46464;BME280;32161;48.148;-1.554;2023-11-21T07:47:20;101351.69;;;11.07;100.00
46464;BME280;32161;48.148;-1.554;2023-11-21T07:49:47;101359.03;;;11.06;100.00
46464;BME280;32161;48.148;-1.554;2023-11-21T07:52:16;101346.50;;;11.05;100.00
46464;BME280;32161;48.148;-1.554;2023-11-21T07:54:44;101356.31;;;11.06;100.00
46464;BME280;32161;48.148;-1.554;2023-11-21T07:57:11;101356.50;;;11.11;100.00
46464;BME280;32161;48.148;-1.554;2023-11-21T07:59:40;101364.88;;;11.10;100.00
46464;BME280;32161;48.148;-1.554;2023-11-21T08:02:08;101351.91;;;11.12;100.00
46464;BME280;32161;48.148;-1.554;2023-11-21T08:04:35;101358.59;;;11.09;100.00
46464;BME280;32161;48.148;-1.554;2023-11-21T08:07:03;101352.50;;;11.14;100.00
46464;BME280;32161;48.148;-1.554;2023-11-21T08:09:32;101363.84;;;11.11;100.00
46464;BME280;32161;48.148;-1.554;2023-11-21T08:12:00;101368.66;;;11.09;100.00
46464;BME280;32161;48.148;-1.554;2023-11-21T08:14:28;101372.03;;;11.04;100.00
46464;BME280;32161;48.148;-1.554;2023-11-21T08:16:56;101372.03;;;11.04;100.00
46464;BME280;32161;48.148;-1.554;2023-11-21T08:19:24;101372.47;;;11.01;100.00
46464;BME280;32161;48.148;-1.554;2023-11-21T08:21:52;101372.22;;;11.03;100.00
46464;BME280;32161;48.148;-1.554;2023-11-21T08:24:21;101375.59;;;10.98;100.00
46464;BME280;32161;48.148;-1.554;2023-11-21T08:26:50;101378.56;;;10.96;100.00
46464;BME280;32161;48.148;-1.554;2023-11-21T08:29:18;101390.03;;;10.98;100.00
46464;BME280;32161;48.148;-1.554;2023-11-21T08:31:46;101393.78;;;11.04;100.00
46464;BME280;32161;48.148;-1.554;2023-11-21T08:34:13;101390.44;;;11.02;100.00
46464;BME280;32161;48.148;-1.554;2023-11-21T08:36:42;101404.25;;;11.07;100.00
46464;BME280;32161;48.148;-1.554;2023-11-21T08:39:10;101405.03;;;11.14;100.00
46464;BME280;32161;48.148;-1.554;2023-11-21T08:41:39;101405.25;;;11.13;100.00
46464;BME280;32161;48.148;-1.554;2023-11-21T08:44:08;101411.09;;;11.16;100.00
46464;BME280;32161;48.148;-1.554;2023-11-21T08:46:37;101414.22;;;11.20;100.00
46464;BME280;32161;48.148;-1.554;2023-11-21T08:49:05;101415.63;;;11.29;100.00
46464;BME280;32161;48.148;-1.554;2023-11-21T08:51:33;101416.69;;;11.28;100.00
46464;BME280;32161;48.148;-1.554;2023-11-21T08:54:00;101424.03;;;11.21;100.00
46464;BME280;32161;48.148;-1.554;2023-11-21T08:56:30;101425.50;;;11.23;100.00
46464;BME280;32161;48.148;-1.554;2023-11-21T08:58:58;101437.19;;;11.31;100.00
46464;BME280;32161;48.148;-1.554;2023-11-21T09:01:29;101436.28;;;11.37;100.00
46464;BME280;32161;48.148;-1.554;2023-11-21T09:03:57;101429.16;;;11.42;100.00
46464;BME280;32161;48.148;-1.554;2023-11-21T09:06:25;101428.72;;;11.45;100.00
46464;BME280;32161;48.148;-1.554;2023-11-21T09:08:52;101428.47;;;11.54;100.00
46464;BME280;32161;48.148;-1.554;2023-11-21T09:11:20;101431.63;;;11.51;100.00
46464;BME280;32161;48.148;-1.554;2023-11-21T09:13:48;101430.78;;;11.50;100.00
46464;BME280;32161;48.148;-1.554;2023-11-21T09:16:15;101435.19;;;11.44;100.00
46464;BME280;32161;48.148;-1.554;2023-11-21T09:18:45;101444.19;;;11.45;100.00
46464;BME280;32161;48.148;-1.554;2023-11-21T09:21:13;101438.56;;;11.46;100.00
46464;BME280;32161;48.148;-1.554;2023-11-21T09:23:40;101447.94;;;11.51;100.00
46464;BME280;32161;48.148;-1.554;2023-11-21T09:26:08;101445.81;;;11.53;100.00
46464;BME280;32161;48.148;-1.554;2023-11-21T09:28:36;101445.81;;;11.53;100.00
46464;BME280;32161;48.148;-1.554;2023-11-21T09:31:05;101453.56;;;11.56;100.00
46464;BME280;32161;48.148;-1.554;2023-11-21T09:33:35;101456.78;;;11.46;100.00
46464;BME280;32161;48.148;-1.554;2023-11-21T09:36:11;101462.63;;;11.49;100.00
46464;BME280;32161;48.148;-1.554;2023-11-21T09:38:39;101464.88;;;11.53;100.00
46464;BME280;32161;48.148;-1.554;2023-11-21T09:41:23;101472.19;;;11.59;100.00
46464;BME280;32161;48.148;-1.554;2023-11-21T09:44:03;101476.31;;;11.68;100.00
46464;BME280;32161;48.148;-1.554;2023-11-21T09:46:34;101482.56;;;11.75;100.00
46464;BME280;32161;48.148;-1.554;2023-11-21T09:49:06;101486.19;;;11.69;100.00
46464;BME280;32161;48.148;-1.554;2023-11-21T09:51:40;101497.91;;;11.69;100.00
46464;BME280;32161;48.148;-1.554;2023-11-21T09:54:10;101501.75;;;11.55;100.00
46464;BME280;32161;48.148;-1.554;2023-11-21T09:56:39;101507.72;;;11.70;100.00
46464;BME280;32161;48.148;-1.554;2023-11-21T09:59:07;101508.13;;;11.74;100.00
46464;BME280;32161;48.148;-1.554;2023-11-21T10:01:37;101517.28;;;11.80;100.00
46464;BME280;32161;48.148;-1.554;2023-11-21T10:04:06;101511.00;;;11.79;100.00
46464;BME280;32161;48.148;-1.554;2023-11-21T10:06:39;101523.69;;;11.98;100.00
46464;BME280;32161;48.148;-1.554;2023-11-21T10:09:09;101526.34;;;12.12;100.00
46464;BME280;32161;48.148;-1.554;2023-11-21T10:11:40;101521.97;;;12.11;100.00
46464;BME280;32161;48.148;-1.554;2023-11-21T10:14:11;101520.78;;;12.00;100.00
46464;BME280;32161;48.148;-1.554;2023-11-21T10:16:41;101527.66;;;12.03;100.00
46464;BME280;32161;48.148;-1.554;2023-11-21T10:19:13;101531.25;;;12.03;100.00
46464;BME280;32161;48.148;-1.554;2023-11-21T10:21:43;101546.13;;;12.01;100.00
46464;BME280;32161;48.148;-1.554;2023-11-21T10:24:11;101544.75;;;12.16;100.00
46464;BME280;32161;48.148;-1.554;2023-11-21T10:26:39;101550.16;;;12.23;100.00
46464;BME280;32161;48.148;-1.554;2023-11-21T10:29:07;101547.47;;;12.16;100.00
46464;BME280;32161;48.148;-1.554;2023-11-21T10:31:38;101545.94;;;12.27;100.00
46464;BME280;32161;48.148;-1.554;2023-11-21T10:34:16;101558.47;;;12.35;100.00
46464;BME280;32161;48.148;-1.554;2023-11-21T10:36:46;101554.50;;;12.31;100.00
46464;BME280;32161;48.148;-1.554;2023-11-21T10:39:16;101548.16;;;12.12;100.00
46464;BME280;32161;48.148;-1.554;2023-11-21T10:41:45;101559.97;;;12.31;100.00
46464;BME280;32161;48.148;-1.554;2023-11-21T10:44:15;101551.38;;;12.27;100.00
46464;BME280;32161;48.148;-1.554;2023-11-21T10:46:46;101555.00;;;12.46;100.00
46464;BME280;32161;48.148;-1.554;2023-11-21T10:49:17;101554.53;;;12.49;100.00
46464;BME280;32161;48.148;-1.554;2023-11-21T10:51:47;101565.91;;;12.46;100.00
46464;BME280;32161;48.148;-1.554;2023-11-21T10:54:19;101560.19;;;12.54;100.00
46464;BME280;32161;48.148;-1.554;2023-11-21T10:56:50;101562.50;;;12.26;100.00
46464;BME280;32161;48.148;-1.554;2023-11-21T10:59:18;101564.38;;;12.25;100.00
46464;BME280;32161;48.148;-1.554;2023-11-21T11:01:48;101565.63;;;12.29;100.00
46464;BME280;32161;48.148;-1.554;2023-11-21T11:04:19;101566.56;;;12.16;100.00
46464;BME280;32161;48.148;-1.554;2023-11-21T11:06:54;101564.75;;;12.35;100.00
46464;BME280;32161;48.148;-1.554;2023-11-21T11:09:22;101561.28;;;12.46;100.00
46464;BME280;32161;48.148;-1.554;2023-11-21T11:11:51;101564.84;;;12.47;100.00
46464;BME280;32161;48.148;-1.554;2023-11-21T11:14:20;101563.25;;;12.39;100.00
46464;BME280;32161;48.148;-1.554;2023-11-21T11:16:54;101561.19;;;12.35;100.00
46464;BME280;32161;48.148;-1.554;2023-11-21T11:19:22;101559.78;;;12.51;100.00
46464;BME280;32161;48.148;-1.554;2023-11-21T11:22:00;101562.34;;;12.45;100.00
46464;BME280;32161;48.148;-1.554;2023-11-21T11:24:58;101561.59;;;12.57;100.00
46464;BME280;32161;48.148;-1.554;2023-11-21T11:27:39;101558.03;;;12.81;100.00
46464;BME280;32161;48.148;-1.554;2023-11-21T11:30:20;101554.25;;;12.82;100.00
46464;BME280;32161;48.148;-1.554;2023-11-21T11:32:58;101543.66;;;12.92;100.00
46464;BME280;32161;48.148;-1.554;2023-11-21T11:35:37;101548.47;;;12.90;100.00
46464;BME280;32161;48.148;-1.554;2023-11-21T11:38:09;101551.41;;;12.70;100.00
46464;BME280;32161;48.148;-1.554;2023-11-21T11:40:41;101558.81;;;12.88;100.00
46464;BME280;32161;48.148;-1.554;2023-11-21T11:43:09;101560.53;;;12.83;100.00
46464;BME280;32161;48.148;-1.554;2023-11-21T11:45:36;101553.34;;;12.88;100.00
46464;BME280;32161;48.148;-1.554;2023-11-21T11:48:08;101553.63;;;12.99;100.00
46464;BME280;32161;48.148;-1.554;2023-11-21T11:51:03;101549.56;;;13.08;100.00
46464;BME280;32161;48.148;-1.554;2023-11-21T11:53:36;101546.97;;;12.94;100.00
46464;BME280;32161;48.148;-1.554;2023-11-21T11:56:27;101544.72;;;12.91;100.00
46464;BME280;32161;48.148;-1.554;2023-11-21T11:58:57;101545.25;;;13.00;100.00
46464;BME280;32161;48.148;-1.554;2023-11-21T12:01:27;101544.31;;;13.06;100.00
46464;BME280;32161;48.148;-1.554;2023-11-21T12:04:27;101540.00;;;12.99;100.00
46464;BME280;32161;48.148;-1.554;2023-11-21T12:07:02;101547.69;;;13.08;100.00
46464;BME280;32161;48.148;-1.554;2023-11-21T12:09:31;101549.41;;;13.03;100.00
46464;BME280;32161;48.148;-1.554;2023-11-21T12:12:00;101556.28;;;12.87;100.00
46464;BME280;32161;48.148;-1.554;2023-11-21T12:14:30;101559.75;;;12.76;100.00
46464;BME280;32161;48.148;-1.554;2023-11-21T12:16:58;101558.53;;;12.71;100.00
46464;BME280;32161;48.148;-1.554;2023-11-21T12:19:26;101548.47;;;12.90;100.00
46464;BME280;32161;48.148;-1.554;2023-11-21T12:21:54;101550.09;;;12.98;100.00
46464;BME280;32161;48.148;-1.554;2023-11-21T12:24:22;101554.25;;;12.82;100.00
46464;BME280;32161;48.148;-1.554;2023-11-21T12:26:51;101549.63;;;12.83;100.00
46464;BME280;32161;48.148;-1.554;2023-11-21T12:29:19;101559.25;;;12.85;100.00
46464;BME280;32161;48.148;-1.554;2023-11-21T12:31:49;101558.38;;;12.66;100.00
46464;BME280;32161;48.148;-1.554;2023-11-21T12:34:17;101546.34;;;12.74;100.00
46464;BME280;32161;48.148;-1.554;2023-11-21T12:36:44;101550.63;;;12.88;100.00
46464;BME280;32161;48.148;-1.554;2023-11-21T12:39:13;101560.22;;;12.91;100.00